createdAt,value
2023-04-03T00:01:22.977Z,85.10
2023-04-03T00:06:22.902Z,85.82
2023-04-03T00:11:24.842Z,85.10
2023-04-03T00:16:22.788Z,85.20
2023-04-03T00:21:31.589Z,84.84
2023-04-03T00:26:22.717Z,84.88
2023-04-03T00:31:22.605Z,85.13
2023-04-03T00:36:22.615Z,85.24
2023-04-03T00:41:22.460Z,85.55
2023-04-03T00:46:22.502Z,85.55
2023-04-03T00:51:22.393Z,85.13
2023-04-03T00:56:22.398Z,85.44
2023-04-03T01:01:22.364Z,85.44
2023-04-03T01:06:22.294Z,85.49
2023-04-03T01:11:22.211Z,85.80
2023-04-03T01:16:22.292Z,85.80
2023-04-03T01:21:22.072Z,85.59
2023-04-03T01:26:22.073Z,85.90
2023-04-03T01:31:22.113Z,86.53
2023-04-03T01:36:21.913Z,86.00
2023-04-03T01:41:21.865Z,86.11
2023-04-03T01:46:21.877Z,86.32
2023-04-03T01:51:21.824Z,86.05
2023-04-03T01:56:21.738Z,85.94
2023-04-03T02:01:21.812Z,86.57
2023-04-03T02:06:21.628Z,86.25
2023-04-03T02:11:21.686Z,86.25
2023-04-03T02:16:21.517Z,86.25
2023-04-03T02:21:21.519Z,85.83
2023-04-03T02:26:21.428Z,85.98
2023-04-03T02:31:21.376Z,86.46
2023-04-03T02:36:21.412Z,86.19
2023-04-03T02:41:21.437Z,86.46
2023-04-03T02:46:21.225Z,86.46
2023-04-03T02:51:22.143Z,86.46
2023-04-03T02:56:21.041Z,86.29
2023-04-03T03:01:21.053Z,86.29
2023-04-03T03:06:20.971Z,86.08
2023-04-03T03:11:20.927Z,86.19
2023-04-03T03:16:20.926Z,86.51
2023-04-03T03:21:20.896Z,86.19
2023-04-03T03:26:20.757Z,86.51
2023-04-03T03:31:20.766Z,86.29
2023-04-03T03:36:20.743Z,86.71
2023-04-03T03:41:20.611Z,86.29
2023-04-03T03:46:20.594Z,86.19
2023-04-03T03:51:20.524Z,86.13
2023-04-03T03:56:20.445Z,86.40
2023-04-03T04:01:20.389Z,86.82
2023-04-03T04:06:20.351Z,86.71
2023-04-03T04:11:20.346Z,86.40
2023-04-03T04:16:20.341Z,86.54
2023-04-03T04:21:20.161Z,86.92
2023-04-03T04:26:20.157Z,87.13
2023-04-03T04:31:20.125Z,86.61
2023-04-03T04:36:20.045Z,86.71
2023-04-03T04:41:19.916Z,86.61
2023-04-03T04:46:19.899Z,86.29
2023-04-03T04:51:19.836Z,86.02
2023-04-03T04:56:19.824Z,86.23
2023-04-03T05:01:19.801Z,86.44
2023-04-03T05:06:19.658Z,86.33
2023-04-03T05:11:19.722Z,86.13
2023-04-03T05:16:19.644Z,86.33
2023-04-03T05:21:19.480Z,86.40
2023-04-03T05:26:19.519Z,86.29
2023-04-03T05:31:19.465Z,86.71
2023-04-03T05:36:19.383Z,86.36
2023-04-03T05:41:19.336Z,86.67
2023-04-03T05:46:19.523Z,86.84
2023-04-03T05:51:19.161Z,86.38
2023-04-03T05:56:19.139Z,86.18
2023-04-03T06:01:19.048Z,86.13
2023-04-03T06:06:19.009Z,86.13
2023-04-03T06:11:18.946Z,85.05
2023-04-03T06:16:18.874Z,84.81
2023-04-03T06:21:27.745Z,83.94
2023-04-03T06:26:18.818Z,83.52
2023-04-03T06:31:18.761Z,83.69
2023-04-03T06:36:18.838Z,81.50
2023-04-03T06:41:18.650Z,81.63
2023-04-03T06:46:18.590Z,80.22
2023-04-03T06:51:18.541Z,79.69
2023-04-03T06:56:18.514Z,78.92
2023-04-03T07:01:18.453Z,77.26
2023-04-03T07:06:18.393Z,77.20
2023-04-03T07:11:18.339Z,76.02
2023-04-03T07:16:18.326Z,75.43
2023-04-03T07:21:18.197Z,74.46
2023-04-03T07:26:18.167Z,72.71
2023-04-03T07:31:18.275Z,70.91
2023-04-03T07:36:18.093Z,71.04
2023-04-03T07:41:17.979Z,69.84
2023-04-03T07:46:18.219Z,69.01
2023-04-03T07:51:17.981Z,68.23
2023-04-03T07:56:17.960Z,68.64
2023-04-03T08:01:17.826Z,67.78
2023-04-03T08:06:19.991Z,65.41
2023-04-03T08:11:18.673Z,66.00
2023-04-03T08:16:18.119Z,64.76
2023-04-03T08:21:17.732Z,65.45
2023-04-03T08:26:17.499Z,63.29
2023-04-03T08:31:17.473Z,63.19
2023-04-03T08:36:17.564Z,60.51
2023-04-03T08:41:17.536Z,60.25
2023-04-03T08:46:17.404Z,58.01
2023-04-03T08:51:17.234Z,57.39
2023-04-03T08:56:17.194Z,57.54
2023-04-03T09:01:17.144Z,54.97
2023-04-03T09:06:17.041Z,54.33
2023-04-03T09:11:17.725Z,54.87
2023-04-03T09:16:17.050Z,55.07
2023-04-03T09:21:16.846Z,53.30
2023-04-03T09:26:16.849Z,52.06
2023-04-03T09:31:16.795Z,52.25
2023-04-03T09:36:16.764Z,51.14
2023-04-03T09:41:16.708Z,52.53
2023-04-03T09:46:17.544Z,50.78
2023-04-03T09:51:16.577Z,49.79
2023-04-03T09:56:16.605Z,48.54
2023-04-03T10:01:16.718Z,49.87
2023-04-03T10:06:17.446Z,48.21
2023-04-03T10:11:16.442Z,46.75
2023-04-03T10:16:16.271Z,48.54
2023-04-03T10:21:26.572Z,47.81
2023-04-03T10:26:17.164Z,46.28
2023-04-03T10:31:16.220Z,46.30
2023-04-03T10:36:16.072Z,44.90
2023-04-03T10:41:17.438Z,44.65
2023-04-03T10:46:16.489Z,45.13
2023-04-03T10:51:16.055Z,44.65
2023-04-03T10:56:15.918Z,43.07
2023-04-03T11:01:15.884Z,43.30
2023-04-03T11:06:15.728Z,44.98
2023-04-03T11:11:15.693Z,43.53
2023-04-03T11:16:15.711Z,42.73
2023-04-03T11:21:15.609Z,42.01
2023-04-03T11:26:15.514Z,41.38
2023-04-03T11:31:15.516Z,44.31
2023-04-03T11:36:24.886Z,43.73
2023-04-03T11:41:16.573Z,39.21
2023-04-03T11:46:15.700Z,41.17
2023-04-03T11:51:15.248Z,40.17
2023-04-03T11:56:15.419Z,39.96
2023-04-03T12:01:15.281Z,41.60
2023-04-03T12:06:15.090Z,39.12
2023-04-03T12:11:15.079Z,40.05
2023-04-03T12:16:15.132Z,41.17
2023-04-03T12:22:13.245Z,39.23
2023-04-03T12:27:13.213Z,41.44
2023-04-03T12:32:13.121Z,42.75
2023-04-03T12:37:13.099Z,41.60
2023-04-03T12:42:13.090Z,41.19
2023-04-03T12:47:13.039Z,42.10
2023-04-03T12:52:12.958Z,40.99
2023-04-03T12:57:12.952Z,40.82
2023-04-03T13:02:12.882Z,43.55
2023-04-03T13:07:12.780Z,43.18
2023-04-03T13:12:12.822Z,40.44
2023-04-03T13:17:12.759Z,42.85
2023-04-03T13:22:12.657Z,43.43
2023-04-03T13:27:12.597Z,42.03
2023-04-03T13:32:12.515Z,44.17
2023-04-03T13:37:12.451Z,42.83
2023-04-03T13:42:12.457Z,42.75
2023-04-03T13:47:12.354Z,42.77
2023-04-03T13:52:12.308Z,41.91
2023-04-03T13:57:12.274Z,44.26
2023-04-03T14:02:12.187Z,44.10
2023-04-03T14:07:12.151Z,45.51
2023-04-03T14:12:20.949Z,44.20
2023-04-03T14:17:13.026Z,43.79
2023-04-03T14:22:13.005Z,43.81
2023-04-03T14:27:12.003Z,45.13
2023-04-03T14:32:15.088Z,44.64
2023-04-03T14:37:11.856Z,45.64
2023-04-03T14:42:11.828Z,43.91
2023-04-03T14:47:14.357Z,43.22
2023-04-03T14:52:12.730Z,43.40
2023-04-03T14:57:11.591Z,44.41
2023-04-03T15:02:11.609Z,45.23
2023-04-03T15:07:11.491Z,45.25
2023-04-03T15:12:11.397Z,46.77
2023-04-03T15:17:11.449Z,45.66
2023-04-03T15:22:11.343Z,45.68
2023-04-03T15:27:11.301Z,46.94
2023-04-03T15:32:11.464Z,46.20
2023-04-03T15:37:11.186Z,45.99
2023-04-03T15:42:11.153Z,45.81
2023-04-03T15:47:11.074Z,45.60
2023-04-03T15:52:10.983Z,46.32
2023-04-03T15:57:11.073Z,49.69
2023-04-03T16:02:10.961Z,46.01
2023-04-03T16:07:10.844Z,47.16
2023-04-03T16:12:10.834Z,46.34
2023-04-03T16:17:10.711Z,47.49
2023-04-03T16:22:10.669Z,47.60
2023-04-03T16:27:10.636Z,46.77
2023-04-03T16:32:10.615Z,47.39
2023-04-03T16:37:10.502Z,47.29
2023-04-03T16:42:10.530Z,47.60
2023-04-03T16:47:10.368Z,47.20
2023-04-03T16:52:10.310Z,49.04
2023-04-03T16:57:10.295Z,48.21
2023-04-03T17:02:10.230Z,47.41
2023-04-03T17:07:10.198Z,47.23
2023-04-03T17:12:10.216Z,48.05
2023-04-03T17:17:10.099Z,47.74
2023-04-03T17:22:10.017Z,48.77
2023-04-03T17:27:10.014Z,49.41
2023-04-03T17:32:10.038Z,50.03
2023-04-03T17:37:10.000Z,48.77
2023-04-03T17:42:09.759Z,49.85
2023-04-03T17:47:09.790Z,49.85
2023-04-03T17:52:09.694Z,49.13
2023-04-03T17:57:09.589Z,49.46
2023-04-03T18:02:09.576Z,49.77
2023-04-03T18:07:09.721Z,49.85
2023-04-03T18:12:09.438Z,51.34
2023-04-03T18:17:09.406Z,51.23
2023-04-03T18:22:09.416Z,51.36
2023-04-03T18:28:42.435Z,50.31
2023-04-03T18:33:42.472Z,52.39
2023-04-03T18:38:42.523Z,50.66
2023-04-03T18:43:42.579Z,51.98
2023-04-03T18:48:42.208Z,52.39
2023-04-03T18:53:44.095Z,52.52
2023-04-03T18:58:42.097Z,51.72
2023-04-03T19:03:46.558Z,51.41
2023-04-03T19:09:04.220Z,51.90
2023-04-03T19:13:57.819Z,52.23
2023-04-03T19:18:47.362Z,51.84
2023-04-03T19:23:41.650Z,52.65
2023-04-03T19:28:42.056Z,53.31
2023-04-03T19:33:42.230Z,52.57
2023-04-03T19:38:41.483Z,53.50
2023-04-03T19:43:41.624Z,53.63
2023-04-03T19:48:41.505Z,53.19
2023-04-03T19:53:42.921Z,53.96
2023-04-03T19:58:42.034Z,53.86
2023-04-03T20:03:41.540Z,54.38
2023-04-03T20:08:53.287Z,53.65
2023-04-03T20:13:44.004Z,53.57
2023-04-03T20:18:42.667Z,53.86
2023-04-03T20:23:42.592Z,55.20
2023-04-03T20:28:43.824Z,54.50
2023-04-03T20:33:42.825Z,54.74
2023-04-03T20:38:42.035Z,56.70
2023-04-03T20:43:41.961Z,55.25
2023-04-03T20:48:41.093Z,54.94
2023-04-03T20:53:41.306Z,57.04
2023-04-03T20:58:42.531Z,56.93
2023-04-03T21:03:41.459Z,58.10
2023-04-03T21:08:43.668Z,56.52
2023-04-03T21:13:40.734Z,56.96
2023-04-03T21:18:40.997Z,57.24
2023-04-03T21:23:43.890Z,57.17
2023-04-03T21:28:41.678Z,59.96
2023-04-03T21:33:42.738Z,59.06
2023-04-03T21:38:40.416Z,60.74
2023-04-03T21:43:41.169Z,60.95
2023-04-03T21:48:40.287Z,60.46
2023-04-03T21:53:41.487Z,61.81
2023-04-03T21:58:42.994Z,62.46
2023-04-03T22:03:40.385Z,62.90
2023-04-03T22:08:40.418Z,64.07
2023-04-03T22:13:41.289Z,64.83
2023-04-03T22:18:39.982Z,66.28
2023-04-03T22:23:40.935Z,66.63
2023-04-03T22:28:43.954Z,67.29
2023-04-03T22:33:40.177Z,68.22
2023-04-03T22:38:40.320Z,68.77
2023-04-03T22:43:39.983Z,69.22
2023-04-03T22:48:40.389Z,70.26
2023-04-03T22:53:39.602Z,70.57
2023-04-03T22:58:39.751Z,71.96
2023-04-03T23:03:40.409Z,72.20
2023-04-03T23:08:39.428Z,73.35
2023-04-03T23:13:39.550Z,73.80
2023-04-03T23:18:39.938Z,74.21
2023-04-03T23:23:39.285Z,74.84
2023-04-03T23:28:39.369Z,75.26
2023-04-03T23:33:39.336Z,75.57
2023-04-03T23:38:39.728Z,76.65
2023-04-03T23:43:41.291Z,76.54
2023-04-03T23:48:40.031Z,76.79
2023-04-03T23:53:39.216Z,77.31
2023-04-03T23:58:40.083Z,77.83
